sensor_id;sensor_type;location;lat;lon;timestamp;P1;durP1;ratioP1;P2;durP2;ratioP2
54502;SDS011;40411;50.090;21.954;2024-02-26T00:01:43;32.95;;;13.93;;
54502;SDS011;40411;50.090;21.954;2024-02-26T00:04:10;29.80;;;15.32;;
54502;SDS011;40411;50.090;21.954;2024-02-26T00:06:37;34.65;;;15.35;;
54502;SDS011;40411;50.090;21.954;2024-02-26T00:09:07;30.65;;;13.98;;
54502;SDS011;40411;50.090;21.954;2024-02-26T00:11:33;23.15;;;12.23;;
54502;SDS011;40411;50.090;21.954;2024-02-26T00:14:01;22.00;;;12.43;;
54502;SDS011;40411;50.090;21.954;2024-02-26T00:16:27;26.50;;;14.15;;
54502;SDS011;40411;50.090;21.954;2024-02-26T00:18:53;35.13;;;15.10;;
54502;SDS011;40411;50.090;21.954;2024-02-26T00:21:18;34.38;;;14.82;;
54502;SDS011;40411;50.090;21.954;2024-02-26T00:23:44;35.53;;;15.13;;
54502;SDS011;40411;50.090;21.954;2024-02-26T00:26:10;27.77;;;13.45;;
54502;SDS011;40411;50.090;21.954;2024-02-26T00:28:36;30.73;;;14.02;;
54502;SDS011;40411;50.090;21.954;2024-02-26T00:31:02;24.92;;;13.63;;
54502;SDS011;40411;50.090;21.954;2024-02-26T00:33:29;26.42;;;13.45;;
54502;SDS011;40411;50.090;21.954;2024-02-26T00:35:54;24.17;;;12.65;;
54502;SDS011;40411;50.090;21.954;2024-02-26T00:38:20;23.52;;;11.55;;
54502;SDS011;40411;50.090;21.954;2024-02-26T00:40:46;21.20;;;12.32;;
54502;SDS011;40411;50.090;21.954;2024-02-26T00:43:12;29.70;;;14.50;;
54502;SDS011;40411;50.090;21.954;2024-02-26T00:45:38;21.90;;;12.40;;
54502;SDS011;40411;50.090;21.954;2024-02-26T00:48:04;26.60;;;12.38;;
54502;SDS011;40411;50.090;21.954;2024-02-26T00:50:31;26.38;;;13.77;;
54502;SDS011;40411;50.090;21.954;2024-02-26T00:52:57;24.60;;;13.50;;
54502;SDS011;40411;50.090;21.954;2024-02-26T00:55:23;24.55;;;12.98;;
54502;SDS011;40411;50.090;21.954;2024-02-26T00:57:49;23.95;;;13.15;;
54502;SDS011;40411;50.090;21.954;2024-02-26T01:00:15;26.23;;;13.75;;
54502;SDS011;40411;50.090;21.954;2024-02-26T01:02:41;23.30;;;12.50;;
54502;SDS011;40411;50.090;21.954;2024-02-26T01:05:07;24.95;;;13.10;;
54502;SDS011;40411;50.090;21.954;2024-02-26T01:07:37;25.27;;;11.57;;
54502;SDS011;40411;50.090;21.954;2024-02-26T01:10:03;24.83;;;12.52;;
54502;SDS011;40411;50.090;21.954;2024-02-26T01:12:29;25.92;;;13.57;;
54502;SDS011;40411;50.090;21.954;2024-02-26T01:14:55;28.40;;;13.23;;
54502;SDS011;40411;50.090;21.954;2024-02-26T01:17:21;25.02;;;13.10;;
54502;SDS011;40411;50.090;21.954;2024-02-26T01:19:47;24.15;;;13.65;;
54502;SDS011;40411;50.090;21.954;2024-02-26T01:22:13;21.63;;;13.50;;
54502;SDS011;40411;50.090;21.954;2024-02-26T01:24:39;26.85;;;14.00;;
54502;SDS011;40411;50.090;21.954;2024-02-26T01:27:05;27.33;;;12.55;;
54502;SDS011;40411;50.090;21.954;2024-02-26T01:29:31;25.52;;;13.25;;
54502;SDS011;40411;50.090;21.954;2024-02-26T01:31:57;29.90;;;13.60;;
54502;SDS011;40411;50.090;21.954;2024-02-26T01:34:23;21.63;;;12.35;;
54502;SDS011;40411;50.090;21.954;2024-02-26T01:36:49;20.90;;;11.43;;
54502;SDS011;40411;50.090;21.954;2024-02-26T01:39:15;24.20;;;12.35;;
54502;SDS011;40411;50.090;21.954;2024-02-26T01:41:41;28.88;;;13.07;;
54502;SDS011;40411;50.090;21.954;2024-02-26T01:44:07;23.95;;;13.75;;
54502;SDS011;40411;50.090;21.954;2024-02-26T01:46:34;24.60;;;12.77;;
54502;SDS011;40411;50.090;21.954;2024-02-26T01:49:01;25.75;;;12.55;;
54502;SDS011;40411;50.090;21.954;2024-02-26T01:51:28;21.70;;;12.00;;
54502;SDS011;40411;50.090;21.954;2024-02-26T01:53:56;29.10;;;11.90;;
54502;SDS011;40411;50.090;21.954;2024-02-26T01:56:23;23.35;;;12.82;;
54502;SDS011;40411;50.090;21.954;2024-02-26T01:58:55;24.63;;;13.15;;
54502;SDS011;40411;50.090;21.954;2024-02-26T02:01:24;27.10;;;14.90;;
54502;SDS011;40411;50.090;21.954;2024-02-26T02:03:53;25.75;;;13.95;;
54502;SDS011;40411;50.090;21.954;2024-02-26T02:06:21;31.42;;;14.57;;
54502;SDS011;40411;50.090;21.954;2024-02-26T02:08:47;29.23;;;14.68;;
54502;SDS011;40411;50.090;21.954;2024-02-26T02:11:14;24.08;;;12.60;;
54502;SDS011;40411;50.090;21.954;2024-02-26T02:13:40;38.20;;;13.00;;
54502;SDS011;40411;50.090;21.954;2024-02-26T02:16:06;23.02;;;12.25;;
54502;SDS011;40411;50.090;21.954;2024-02-26T02:18:33;23.23;;;11.40;;
54502;SDS011;40411;50.090;21.954;2024-02-26T02:21:02;19.38;;;10.00;;
54502;SDS011;40411;50.090;21.954;2024-02-26T02:23:28;19.35;;;10.57;;
54502;SDS011;40411;50.090;21.954;2024-02-26T02:25:54;16.90;;;8.32;;
54502;SDS011;40411;50.090;21.954;2024-02-26T02:28:22;17.58;;;8.60;;
54502;SDS011;40411;50.090;21.954;2024-02-26T02:30:49;16.70;;;7.95;;
54502;SDS011;40411;50.090;21.954;2024-02-26T02:33:15;14.25;;;8.20;;
54502;SDS011;40411;50.090;21.954;2024-02-26T02:35:41;15.90;;;9.00;;
54502;SDS011;40411;50.090;21.954;2024-02-26T02:38:08;14.43;;;8.20;;
54502;SDS011;40411;50.090;21.954;2024-02-26T02:40:34;15.70;;;7.22;;
54502;SDS011;40411;50.090;21.954;2024-02-26T02:43:00;15.73;;;7.80;;
54502;SDS011;40411;50.090;21.954;2024-02-26T02:45:28;16.30;;;8.68;;
54502;SDS011;40411;50.090;21.954;2024-02-26T02:47:54;12.65;;;7.13;;
54502;SDS011;40411;50.090;21.954;2024-02-26T02:50:20;19.33;;;8.50;;
54502;SDS011;40411;50.090;21.954;2024-02-26T02:52:46;17.55;;;8.35;;
54502;SDS011;40411;50.090;21.954;2024-02-26T02:55:12;15.45;;;8.75;;
54502;SDS011;40411;50.090;21.954;2024-02-26T02:57:38;16.48;;;8.95;;
54502;SDS011;40411;50.090;21.954;2024-02-26T03:00:09;16.58;;;9.00;;
54502;SDS011;40411;50.090;21.954;2024-02-26T03:02:35;21.67;;;8.95;;
54502;SDS011;40411;50.090;21.954;2024-02-26T03:05:04;13.90;;;7.28;;
54502;SDS011;40411;50.090;21.954;2024-02-26T03:07:31;17.75;;;7.88;;
54502;SDS011;40411;50.090;21.954;2024-02-26T03:09:57;17.85;;;8.02;;
54502;SDS011;40411;50.090;21.954;2024-02-26T03:12:23;16.92;;;9.15;;
54502;SDS011;40411;50.090;21.954;2024-02-26T03:14:49;16.67;;;9.40;;
54502;SDS011;40411;50.090;21.954;2024-02-26T03:17:15;19.08;;;9.98;;
54502;SDS011;40411;50.090;21.954;2024-02-26T03:19:41;16.40;;;10.02;;
54502;SDS011;40411;50.090;21.954;2024-02-26T03:22:07;22.02;;;10.52;;
54502;SDS011;40411;50.090;21.954;2024-02-26T03:24:33;23.17;;;10.40;;
54502;SDS011;40411;50.090;21.954;2024-02-26T03:26:59;24.52;;;10.55;;
54502;SDS011;40411;50.090;21.954;2024-02-26T03:29:25;20.65;;;11.38;;
54502;SDS011;40411;50.090;21.954;2024-02-26T03:31:51;20.20;;;10.65;;
54502;SDS011;40411;50.090;21.954;2024-02-26T03:34:17;19.77;;;10.98;;
54502;SDS011;40411;50.090;21.954;2024-02-26T03:36:44;20.50;;;10.68;;
54502;SDS011;40411;50.090;21.954;2024-02-26T03:39:10;21.73;;;10.90;;
54502;SDS011;40411;50.090;21.954;2024-02-26T03:41:36;21.13;;;10.32;;
54502;SDS011;40411;50.090;21.954;2024-02-26T03:44:02;20.15;;;11.73;;
54502;SDS011;40411;50.090;21.954;2024-02-26T03:46:28;23.48;;;11.45;;
54502;SDS011;40411;50.090;21.954;2024-02-26T03:48:54;20.15;;;11.15;;
54502;SDS011;40411;50.090;21.954;2024-02-26T03:51:20;20.70;;;10.45;;
54502;SDS011;40411;50.090;21.954;2024-02-26T03:53:45;22.08;;;11.02;;
54502;SDS011;40411;50.090;21.954;2024-02-26T03:56:12;19.45;;;10.68;;
54502;SDS011;40411;50.090;21.954;2024-02-26T03:58:38;23.25;;;11.60;;
54502;SDS011;40411;50.090;21.954;2024-02-26T04:01:07;20.25;;;10.68;;
54502;SDS011;40411;50.090;21.954;2024-02-26T04:03:33;21.05;;;10.35;;
54502;SDS011;40411;50.090;21.954;2024-02-26T04:06:00;28.75;;;11.05;;
54502;SDS011;40411;50.090;21.954;2024-02-26T04:08:26;16.85;;;8.45;;
54502;SDS011;40411;50.090;21.954;2024-02-26T04:10:52;18.65;;;9.77;;
54502;SDS011;40411;50.090;21.954;2024-02-26T04:13:19;16.52;;;8.60;;
54502;SDS011;40411;50.090;21.954;2024-02-26T04:15:45;19.05;;;8.88;;
54502;SDS011;40411;50.090;21.954;2024-02-26T04:18:12;17.65;;;8.13;;
54502;SDS011;40411;50.090;21.954;2024-02-26T04:20:38;13.73;;;7.95;;
54502;SDS011;40411;50.090;21.954;2024-02-26T04:23:04;15.55;;;8.00;;
54502;SDS011;40411;50.090;21.954;2024-02-26T04:25:30;16.10;;;8.30;;
54502;SDS011;40411;50.090;21.954;2024-02-26T04:27:56;11.90;;;7.28;;
54502;SDS011;40411;50.090;21.954;2024-02-26T04:30:22;13.48;;;5.95;;
54502;SDS011;40411;50.090;21.954;2024-02-26T04:32:47;8.18;;;4.50;;
54502;SDS011;40411;50.090;21.954;2024-02-26T04:35:13;9.82;;;4.85;;
54502;SDS011;40411;50.090;21.954;2024-02-26T04:37:39;9.63;;;4.53;;
54502;SDS011;40411;50.090;21.954;2024-02-26T04:40:05;8.73;;;4.47;;
54502;SDS011;40411;50.090;21.954;2024-02-26T04:42:31;8.90;;;4.10;;
54502;SDS011;40411;50.090;21.954;2024-02-26T04:44:57;8.95;;;4.47;;
54502;SDS011;40411;50.090;21.954;2024-02-26T04:47:23;9.32;;;4.35;;
54502;SDS011;40411;50.090;21.954;2024-02-26T04:49:49;8.77;;;4.45;;
54502;SDS011;40411;50.090;21.954;2024-02-26T04:52:16;12.30;;;5.50;;
54502;SDS011;40411;50.090;21.954;2024-02-26T04:54:42;6.85;;;3.95;;
54502;SDS011;40411;50.090;21.954;2024-02-26T04:57:07;12.50;;;4.50;;
54502;SDS011;40411;50.090;21.954;2024-02-26T04:59:33;12.57;;;4.30;;
54502;SDS011;40411;50.090;21.954;2024-02-26T05:01:59;7.78;;;4.35;;
54502;SDS011;40411;50.090;21.954;2024-02-26T05:04:25;8.45;;;4.55;;
54502;SDS011;40411;50.090;21.954;2024-02-26T05:06:51;7.72;;;4.15;;
54502;SDS011;40411;50.090;21.954;2024-02-26T05:09:17;10.80;;;4.88;;
54502;SDS011;40411;50.090;21.954;2024-02-26T05:11:43;11.77;;;6.18;;
54502;SDS011;40411;50.090;21.954;2024-02-26T05:14:10;9.57;;;5.65;;
54502;SDS011;40411;50.090;21.954;2024-02-26T05:16:35;10.00;;;5.85;;
54502;SDS011;40411;50.090;21.954;2024-02-26T05:19:01;12.05;;;5.00;;
54502;SDS011;40411;50.090;21.954;2024-02-26T05:21:28;8.15;;;4.00;;
54502;SDS011;40411;50.090;21.954;2024-02-26T05:23:55;8.35;;;4.78;;
54502;SDS011;40411;50.090;21.954;2024-02-26T05:26:23;6.82;;;3.97;;
54502;SDS011;40411;50.090;21.954;2024-02-26T05:28:49;9.63;;;4.07;;
54502;SDS011;40411;50.090;21.954;2024-02-26T05:31:16;8.65;;;4.63;;
54502;SDS011;40411;50.090;21.954;2024-02-26T05:33:44;8.43;;;4.20;;
54502;SDS011;40411;50.090;21.954;2024-02-26T05:36:10;9.90;;;3.42;;
54502;SDS011;40411;50.090;21.954;2024-02-26T05:38:43;6.25;;;3.22;;
54502;SDS011;40411;50.090;21.954;2024-02-26T05:41:11;5.95;;;2.97;;
54502;SDS011;40411;50.090;21.954;2024-02-26T05:43:38;6.50;;;3.58;;
54502;SDS011;40411;50.090;21.954;2024-02-26T05:46:03;6.53;;;2.92;;
54502;SDS011;40411;50.090;21.954;2024-02-26T05:48:30;5.35;;;2.42;;
54502;SDS011;40411;50.090;21.954;2024-02-26T05:50:57;5.47;;;2.83;;
54502;SDS011;40411;50.090;21.954;2024-02-26T05:53:23;6.97;;;3.55;;
54502;SDS011;40411;50.090;21.954;2024-02-26T05:55:49;7.22;;;3.70;;
54502;SDS011;40411;50.090;21.954;2024-02-26T05:58:15;6.05;;;3.13;;
54502;SDS011;40411;50.090;21.954;2024-02-26T06:00:42;5.88;;;2.88;;
54502;SDS011;40411;50.090;21.954;2024-02-26T06:03:08;6.88;;;3.50;;
54502;SDS011;40411;50.090;21.954;2024-02-26T06:05:34;7.35;;;3.00;;
54502;SDS011;40411;50.090;21.954;2024-02-26T06:08:00;5.65;;;3.00;;
54502;SDS011;40411;50.090;21.954;2024-02-26T06:10:26;7.40;;;3.35;;
54502;SDS011;40411;50.090;21.954;2024-02-26T06:12:52;11.82;;;3.30;;
54502;SDS011;40411;50.090;21.954;2024-02-26T06:15:18;6.90;;;3.13;;
54502;SDS011;40411;50.090;21.954;2024-02-26T06:17:46;8.25;;;3.90;;
54502;SDS011;40411;50.090;21.954;2024-02-26T06:20:12;10.38;;;3.67;;
54502;SDS011;40411;50.090;21.954;2024-02-26T06:22:41;7.35;;;3.17;;
54502;SDS011;40411;50.090;21.954;2024-02-26T06:25:09;7.55;;;2.95;;
54502;SDS011;40411;50.090;21.954;2024-02-26T06:27:35;7.47;;;3.40;;
54502;SDS011;40411;50.090;21.954;2024-02-26T06:30:01;6.68;;;3.53;;
54502;SDS011;40411;50.090;21.954;2024-02-26T06:32:28;10.38;;;3.55;;
54502;SDS011;40411;50.090;21.954;2024-02-26T06:34:54;7.25;;;3.65;;
54502;SDS011;40411;50.090;21.954;2024-02-26T06:37:21;6.20;;;3.50;;
54502;SDS011;40411;50.090;21.954;2024-02-26T06:39:47;6.20;;;3.08;;
54502;SDS011;40411;50.090;21.954;2024-02-26T06:42:13;7.53;;;3.78;;
54502;SDS011;40411;50.090;21.954;2024-02-26T06:44:38;8.18;;;3.97;;
54502;SDS011;40411;50.090;21.954;2024-02-26T06:47:04;7.30;;;3.60;;
54502;SDS011;40411;50.090;21.954;2024-02-26T06:49:30;7.28;;;3.65;;
54502;SDS011;40411;50.090;21.954;2024-02-26T06:51:56;7.40;;;3.97;;
54502;SDS011;40411;50.090;21.954;2024-02-26T06:54:22;8.75;;;4.05;;
54502;SDS011;40411;50.090;21.954;2024-02-26T06:56:48;8.38;;;3.90;;
54502;SDS011;40411;50.090;21.954;2024-02-26T06:59:14;10.13;;;4.07;;
54502;SDS011;40411;50.090;21.954;2024-02-26T07:01:41;12.65;;;5.15;;
54502;SDS011;40411;50.090;21.954;2024-02-26T07:04:07;7.32;;;3.40;;
54502;SDS011;40411;50.090;21.954;2024-02-26T07:06:33;9.57;;;4.18;;
54502;SDS011;40411;50.090;21.954;2024-02-26T07:08:59;13.07;;;4.03;;
54502;SDS011;40411;50.090;21.954;2024-02-26T07:11:25;8.88;;;4.43;;
54502;SDS011;40411;50.090;21.954;2024-02-26T07:13:50;7.05;;;3.70;;
54502;SDS011;40411;50.090;21.954;2024-02-26T07:16:16;7.25;;;3.95;;
54502;SDS011;40411;50.090;21.954;2024-02-26T07:18:42;9.60;;;4.30;;
54502;SDS011;40411;50.090;21.954;2024-02-26T07:21:11;15.88;;;5.75;;
54502;SDS011;40411;50.090;21.954;2024-02-26T07:23:37;13.23;;;4.65;;
54502;SDS011;40411;50.090;21.954;2024-02-26T07:26:04;12.90;;;6.82;;
54502;SDS011;40411;50.090;21.954;2024-02-26T07:28:29;16.45;;;6.38;;
54502;SDS011;40411;50.090;21.954;2024-02-26T07:30:55;22.35;;;9.50;;
54502;SDS011;40411;50.090;21.954;2024-02-26T07:33:21;50.38;;;20.65;;
54502;SDS011;40411;50.090;21.954;2024-02-26T07:35:47;38.85;;;16.67;;
54502;SDS011;40411;50.090;21.954;2024-02-26T07:38:13;31.63;;;15.00;;
54502;SDS011;40411;50.090;21.954;2024-02-26T07:40:39;70.22;;;30.33;;
54502;SDS011;40411;50.090;21.954;2024-02-26T07:43:05;69.43;;;30.38;;
54502;SDS011;40411;50.090;21.954;2024-02-26T07:45:31;40.22;;;18.45;;
54502;SDS011;40411;50.090;21.954;2024-02-26T07:47:57;21.40;;;10.10;;
54502;SDS011;40411;50.090;21.954;2024-02-26T07:50:23;15.18;;;7.22;;
54502;SDS011;40411;50.090;21.954;2024-02-26T07:52:48;11.68;;;5.45;;
54502;SDS011;40411;50.090;21.954;2024-02-26T07:55:16;11.70;;;6.32;;
54502;SDS011;40411;50.090;21.954;2024-02-26T07:57:42;11.95;;;7.00;;
54502;SDS011;40411;50.090;21.954;2024-02-26T08:00:09;16.33;;;7.03;;
54502;SDS011;40411;50.090;21.954;2024-02-26T08:02:36;13.45;;;6.55;;
54502;SDS011;40411;50.090;21.954;2024-02-26T08:05:02;14.77;;;7.07;;
54502;SDS011;40411;50.090;21.954;2024-02-26T08:07:28;15.13;;;7.38;;
54502;SDS011;40411;50.090;21.954;2024-02-26T08:09:54;15.25;;;7.47;;
54502;SDS011;40411;50.090;21.954;2024-02-26T08:12:20;14.88;;;8.10;;
54502;SDS011;40411;50.090;21.954;2024-02-26T08:14:46;13.38;;;7.70;;
54502;SDS011;40411;50.090;21.954;2024-02-26T08:17:12;13.15;;;7.45;;
54502;SDS011;40411;50.090;21.954;2024-02-26T08:19:38;22.27;;;11.13;;
54502;SDS011;40411;50.090;21.954;2024-02-26T08:22:04;22.30;;;10.80;;
54502;SDS011;40411;50.090;21.954;2024-02-26T08:24:30;15.27;;;8.35;;
54502;SDS011;40411;50.090;21.954;2024-02-26T08:26:56;23.33;;;11.13;;
54502;SDS011;40411;50.090;21.954;2024-02-26T08:29:22;23.27;;;12.45;;
54502;SDS011;40411;50.090;21.954;2024-02-26T08:31:47;16.15;;;9.90;;
54502;SDS011;40411;50.090;21.954;2024-02-26T08:34:14;18.15;;;10.30;;
54502;SDS011;40411;50.090;21.954;2024-02-26T08:36:40;21.48;;;11.20;;
54502;SDS011;40411;50.090;21.954;2024-02-26T08:39:06;19.33;;;11.30;;
54502;SDS011;40411;50.090;21.954;2024-02-26T08:41:34;21.55;;;10.38;;
54502;SDS011;40411;50.090;21.954;2024-02-26T08:44:00;21.55;;;11.48;;
54502;SDS011;40411;50.090;21.954;2024-02-26T08:46:26;23.75;;;11.45;;
54502;SDS011;40411;50.090;21.954;2024-02-26T08:48:52;21.25;;;11.75;;
54502;SDS011;40411;50.090;21.954;2024-02-26T08:51:17;24.60;;;12.68;;
54502;SDS011;40411;50.090;21.954;2024-02-26T08:53:43;23.27;;;12.70;;
54502;SDS011;40411;50.090;21.954;2024-02-26T08:56:09;28.65;;;12.88;;
54502;SDS011;40411;50.090;21.954;2024-02-26T08:58:42;23.40;;;12.77;;
54502;SDS011;40411;50.090;21.954;2024-02-26T09:01:09;24.58;;;13.82;;
54502;SDS011;40411;50.090;21.954;2024-02-26T09:03:35;22.95;;;13.55;;
54502;SDS011;40411;50.090;21.954;2024-02-26T09:06:01;28.48;;;13.68;;
54502;SDS011;40411;50.090;21.954;2024-02-26T09:08:27;26.40;;;13.65;;
54502;SDS011;40411;50.090;21.954;2024-02-26T09:10:53;15.32;;;7.90;;
54502;SDS011;40411;50.090;21.954;2024-02-26T09:13:19;13.02;;;6.43;;
54502;SDS011;40411;50.090;21.954;2024-02-26T09:15:45;11.02;;;5.90;;
54502;SDS011;40411;50.090;21.954;2024-02-26T09:18:11;10.13;;;5.63;;
54502;SDS011;40411;50.090;21.954;2024-02-26T09:20:37;16.25;;;5.47;;
54502;SDS011;40411;50.090;21.954;2024-02-26T09:23:04;11.40;;;4.97;;
54502;SDS011;40411;50.090;21.954;2024-02-26T09:25:29;9.85;;;5.60;;
54502;SDS011;40411;50.090;21.954;2024-02-26T09:27:55;11.50;;;5.32;;
54502;SDS011;40411;50.090;21.954;2024-02-26T09:30:21;9.52;;;5.53;;
54502;SDS011;40411;50.090;21.954;2024-02-26T09:32:47;9.73;;;5.20;;
54502;SDS011;40411;50.090;21.954;2024-02-26T09:35:16;10.63;;;4.93;;
54502;SDS011;40411;50.090;21.954;2024-02-26T09:37:42;9.55;;;4.93;;
54502;SDS011;40411;50.090;21.954;2024-02-26T09:40:09;11.57;;;5.43;;
54502;SDS011;40411;50.090;21.954;2024-02-26T09:42:42;11.00;;;5.28;;
54502;SDS011;40411;50.090;21.954;2024-02-26T09:45:10;13.15;;;5.50;;
54502;SDS011;40411;50.090;21.954;2024-02-26T09:47:47;10.57;;;5.32;;
54502;SDS011;40411;50.090;21.954;2024-02-26T09:50:14;9.43;;;4.85;;
54502;SDS011;40411;50.090;21.954;2024-02-26T09:52:43;15.30;;;5.00;;
54502;SDS011;40411;50.090;21.954;2024-02-26T09:55:09;10.85;;;4.97;;
54502;SDS011;40411;50.090;21.954;2024-02-26T09:57:36;9.98;;;4.82;;
54502;SDS011;40411;50.090;21.954;2024-02-26T10:00:03;11.27;;;4.88;;
54502;SDS011;40411;50.090;21.954;2024-02-26T10:02:34;8.02;;;4.43;;
54502;SDS011;40411;50.090;21.954;2024-02-26T10:05:02;9.90;;;5.00;;
54502;SDS011;40411;50.090;21.954;2024-02-26T10:07:32;13.27;;;5.10;;
54502;SDS011;40411;50.090;21.954;2024-02-26T10:09:58;13.50;;;4.68;;
54502;SDS011;40411;50.090;21.954;2024-02-26T10:12:24;8.50;;;4.70;;
54502;SDS011;40411;50.090;21.954;2024-02-26T10:14:53;10.93;;;4.50;;
54502;SDS011;40411;50.090;21.954;2024-02-26T10:17:19;9.70;;;4.70;;
54502;SDS011;40411;50.090;21.954;2024-02-26T10:19:45;11.88;;;4.63;;
54502;SDS011;40411;50.090;21.954;2024-02-26T10:22:11;9.38;;;4.60;;
54502;SDS011;40411;50.090;21.954;2024-02-26T10:24:37;9.07;;;5.10;;
54502;SDS011;40411;50.090;21.954;2024-02-26T10:27:03;12.60;;;4.32;;
54502;SDS011;40411;50.090;21.954;2024-02-26T10:29:30;10.80;;;4.55;;
54502;SDS011;40411;50.090;21.954;2024-02-26T10:31:56;12.65;;;4.47;;
54502;SDS011;40411;50.090;21.954;2024-02-26T10:34:22;8.25;;;4.00;;
54502;SDS011;40411;50.090;21.954;2024-02-26T10:36:49;9.63;;;3.92;;
54502;SDS011;40411;50.090;21.954;2024-02-26T10:39:15;13.10;;;4.50;;
54502;SDS011;40411;50.090;21.954;2024-02-26T10:41:42;8.25;;;3.88;;
54502;SDS011;40411;50.090;21.954;2024-02-26T10:44:09;11.70;;;4.43;;
54502;SDS011;40411;50.090;21.954;2024-02-26T10:46:41;9.63;;;4.10;;
54502;SDS011;40411;50.090;21.954;2024-02-26T10:49:14;13.57;;;5.65;;
54502;SDS011;40411;50.090;21.954;2024-02-26T10:51:54;12.23;;;4.78;;
54502;SDS011;40411;50.090;21.954;2024-02-26T10:54:26;8.35;;;3.88;;
54502;SDS011;40411;50.090;21.954;2024-02-26T10:56:58;8.10;;;4.28;;
54502;SDS011;40411;50.090;21.954;2024-02-26T10:59:26;16.42;;;4.45;;
54502;SDS011;40411;50.090;21.954;2024-02-26T11:01:52;10.25;;;3.70;;
54502;SDS011;40411;50.090;21.954;2024-02-26T11:04:21;13.38;;;4.00;;
54502;SDS011;40411;50.090;21.954;2024-02-26T11:06:48;10.75;;;3.28;;
54502;SDS011;40411;50.090;21.954;2024-02-26T11:09:15;7.45;;;3.38;;
54502;SDS011;40411;50.090;21.954;2024-02-26T11:11:42;8.20;;;3.38;;
54502;SDS011;40411;50.090;21.954;2024-02-26T11:14:08;8.18;;;3.33;;
54502;SDS011;40411;50.090;21.954;2024-02-26T11:16:35;30.98;;;4.88;;
54502;SDS011;40411;50.090;21.954;2024-02-26T11:19:03;8.25;;;3.20;;
54502;SDS011;40411;50.090;21.954;2024-02-26T11:21:31;7.30;;;2.55;;
54502;SDS011;40411;50.090;21.954;2024-02-26T11:24:07;9.50;;;3.50;;
54502;SDS011;40411;50.090;21.954;2024-02-26T11:26:51;6.68;;;2.97;;
54502;SDS011;40411;50.090;21.954;2024-02-26T11:29:25;7.35;;;3.42;;
54502;SDS011;40411;50.090;21.954;2024-02-26T11:32:04;6.20;;;2.97;;
54502;SDS011;40411;50.090;21.954;2024-02-26T11:34:31;8.25;;;3.38;;
54502;SDS011;40411;50.090;21.954;2024-02-26T11:36:57;10.43;;;3.05;;
54502;SDS011;40411;50.090;21.954;2024-02-26T11:39:23;12.05;;;3.72;;
54502;SDS011;40411;50.090;21.954;2024-02-26T11:41:50;6.55;;;2.60;;
54502;SDS011;40411;50.090;21.954;2024-02-26T11:44:15;9.48;;;3.13;;
54502;SDS011;40411;50.090;21.954;2024-02-26T11:46:54;13.50;;;2.88;;
54502;SDS011;40411;50.090;21.954;2024-02-26T11:51:57;17.42;;;2.80;;
54502;SDS011;40411;50.090;21.954;2024-02-26T11:57:20;7.32;;;2.67;;
54502;SDS011;40411;50.090;21.954;2024-02-26T11:59:47;8.48;;;2.55;;
54502;SDS011;40411;50.090;21.954;2024-02-26T12:02:37;6.72;;;2.70;;
54502;SDS011;40411;50.090;21.954;2024-02-26T12:07:46;12.30;;;2.80;;
54502;SDS011;40411;50.090;21.954;2024-02-26T12:10:14;8.20;;;2.90;;
54502;SDS011;40411;50.090;21.954;2024-02-26T12:12:41;5.97;;;2.78;;
54502;SDS011;40411;50.090;21.954;2024-02-26T12:15:08;10.75;;;3.00;;
54502;SDS011;40411;50.090;21.954;2024-02-26T12:17:34;9.82;;;3.13;;
54502;SDS011;40411;50.090;21.954;2024-02-26T12:20:10;7.57;;;2.97;;
54502;SDS011;40411;50.090;21.954;2024-02-26T12:22:41;7.32;;;2.83;;
54502;SDS011;40411;50.090;21.954;2024-02-26T12:25:12;6.15;;;3.00;;
54502;SDS011;40411;50.090;21.954;2024-02-26T12:27:38;9.32;;;2.72;;
54502;SDS011;40411;50.090;21.954;2024-02-26T12:30:04;5.93;;;2.33;;
54502;SDS011;40411;50.090;21.954;2024-02-26T12:32:32;6.57;;;2.58;;
54502;SDS011;40411;50.090;21.954;2024-02-26T12:34:58;9.23;;;3.15;;
54502;SDS011;40411;50.090;21.954;2024-02-26T12:37:26;10.95;;;3.25;;
54502;SDS011;40411;50.090;21.954;2024-02-26T12:39:53;12.52;;;3.45;;
54502;SDS011;40411;50.090;21.954;2024-02-26T12:42:19;7.10;;;2.67;;
54502;SDS011;40411;50.090;21.954;2024-02-26T12:44:46;8.65;;;2.40;;
54502;SDS011;40411;50.090;21.954;2024-02-26T12:47:12;6.03;;;2.60;;
54502;SDS011;40411;50.090;21.954;2024-02-26T12:49:51;10.40;;;3.47;;
54502;SDS011;40411;50.090;21.954;2024-02-26T12:52:17;8.43;;;3.00;;
54502;SDS011;40411;50.090;21.954;2024-02-26T12:54:43;12.52;;;3.20;;
54502;SDS011;40411;50.090;21.954;2024-02-26T12:57:10;10.15;;;2.70;;
54502;SDS011;40411;50.090;21.954;2024-02-26T12:59:36;7.97;;;2.97;;
54502;SDS011;40411;50.090;21.954;2024-02-26T13:02:03;7.25;;;2.90;;
54502;SDS011;40411;50.090;21.954;2024-02-26T13:04:31;6.43;;;2.67;;
54502;SDS011;40411;50.090;21.954;2024-02-26T13:06:57;5.32;;;2.45;;
54502;SDS011;40411;50.090;21.954;2024-02-26T13:09:30;6.85;;;2.85;;
54502;SDS011;40411;50.090;21.954;2024-02-26T13:11:59;10.45;;;2.88;;
54502;SDS011;40411;50.090;21.954;2024-02-26T13:14:26;6.82;;;2.70;;
54502;SDS011;40411;50.090;21.954;2024-02-26T13:16:56;7.50;;;2.85;;
54502;SDS011;40411;50.090;21.954;2024-02-26T13:19:22;4.93;;;2.40;;
54502;SDS011;40411;50.090;21.954;2024-02-26T13:21:49;6.60;;;2.88;;
54502;SDS011;40411;50.090;21.954;2024-02-26T13:24:15;5.85;;;2.80;;
54502;SDS011;40411;50.090;21.954;2024-02-26T13:26:42;8.23;;;2.58;;
54502;SDS011;40411;50.090;21.954;2024-02-26T13:29:07;10.02;;;2.55;;
54502;SDS011;40411;50.090;21.954;2024-02-26T13:31:39;7.03;;;2.83;;
54502;SDS011;40411;50.090;21.954;2024-02-26T13:34:05;14.50;;;3.00;;
54502;SDS011;40411;50.090;21.954;2024-02-26T13:36:32;11.35;;;3.00;;
54502;SDS011;40411;50.090;21.954;2024-02-26T13:38:58;7.82;;;2.97;;
54502;SDS011;40411;50.090;21.954;2024-02-26T13:41:24;7.78;;;2.08;;
54502;SDS011;40411;50.090;21.954;2024-02-26T13:43:49;7.97;;;2.47;;
54502;SDS011;40411;50.090;21.954;2024-02-26T13:46:16;6.72;;;2.95;;
54502;SDS011;40411;50.090;21.954;2024-02-26T13:48:42;6.55;;;2.72;;
54502;SDS011;40411;50.090;21.954;2024-02-26T13:51:08;8.30;;;2.88;;
54502;SDS011;40411;50.090;21.954;2024-02-26T13:53:34;6.10;;;2.42;;
54502;SDS011;40411;50.090;21.954;2024-02-26T13:56:00;6.22;;;2.90;;
54502;SDS011;40411;50.090;21.954;2024-02-26T13:58:27;9.52;;;3.20;;
54502;SDS011;40411;50.090;21.954;2024-02-26T14:00:53;8.70;;;3.10;;
54502;SDS011;40411;50.090;21.954;2024-02-26T14:03:19;6.53;;;2.90;;
54502;SDS011;40411;50.090;21.954;2024-02-26T14:05:46;11.73;;;2.75;;
54502;SDS011;40411;50.090;21.954;2024-02-26T14:08:12;5.70;;;2.75;;
54502;SDS011;40411;50.090;21.954;2024-02-26T14:10:38;6.45;;;2.63;;
54502;SDS011;40411;50.090;21.954;2024-02-26T14:13:04;18.75;;;3.22;;
54502;SDS011;40411;50.090;21.954;2024-02-26T14:15:30;7.90;;;2.80;;
54502;SDS011;40411;50.090;21.954;2024-02-26T14:17:56;9.23;;;2.50;;
54502;SDS011;40411;50.090;21.954;2024-02-26T14:20:22;11.43;;;2.90;;
54502;SDS011;40411;50.090;21.954;2024-02-26T14:22:49;5.15;;;2.50;;
54502;SDS011;40411;50.090;21.954;2024-02-26T14:25:17;8.35;;;2.90;;
54502;SDS011;40411;50.090;21.954;2024-02-26T14:27:43;7.78;;;2.58;;
54502;SDS011;40411;50.090;21.954;2024-02-26T14:30:09;9.93;;;3.20;;